Time;durP1;ratioP1;P1;durP2;ratioP2;P2;SDS_P1;SDS_P2;PMS_P1;PMS_P2;Temp;Humidity;BMP_temperature;BMP_pressure;BME280_temperature;BME280_humidity;BME280_pressure;Samples;Min_cycle;Max_cycle;Signal;HPM_P1;HPM_P2
2023/02/07 00:01:09;;;;;;;26.60;19.00;;;-0.90;99.90;;;;;;5032096;28;20447;-73
2023/02/07 00:03:37;;;;;;;23.67;18.83;;;-0.90;99.90;;;;;;5036939;28;20045;-73
2023/02/07 00:06:06;;;;;;;26.80;22.17;;;-0.90;99.90;;;;;;5035849;28;20547;-74
2023/02/07 00:08:33;;;;;;;26.75;19.10;;;-0.80;99.90;;;;;;5040142;28;20579;-73
2023/02/07 00:11:07;;;;;;;23.60;19.27;;;-0.80;99.90;;;;;;5034862;28;20048;-74
2023/02/07 00:13:34;;;;;;;20.00;17.20;;;-0.80;99.90;;;;;;5038159;28;20064;-73
2023/02/07 00:16:03;;;;;;;23.30;18.05;;;-0.80;99.90;;;;;;5042499;28;20041;-73
2023/02/07 00:18:30;;;;;;;21.17;17.83;;;-0.80;99.90;;;;;;5038240;28;20041;-73
2023/02/07 00:21:05;;;;;;;23.90;17.98;;;-0.80;99.90;;;;;;5035594;28;20044;-73
2023/02/07 00:23:33;;;;;;;22.75;18.13;;;-0.80;99.90;;;;;;5036054;28;20132;-73
2023/02/07 00:26:00;;;;;;;23.08;19.95;;;-0.90;99.90;;;;;;5036692;28;20041;-73
2023/02/07 00:28:26;;;;;;;27.88;22.73;;;-0.90;99.90;;;;;;5021929;28;20291;-73
2023/02/07 00:31:03;;;;;;;20.48;17.55;;;-0.90;99.90;;;;;;5035739;28;20044;-73
2023/02/07 00:33:30;;;;;;;21.10;18.40;;;-0.80;99.90;;;;;;5036377;28;20506;-74
2023/02/07 00:35:59;;;;;;;22.50;20.20;;;-0.90;99.90;;;;;;5037612;28;21093;-74
2023/02/07 00:38:28;;;;;;;21.73;19.63;;;-0.80;99.90;;;;;;5052085;28;20143;-74
2023/02/07 00:40:54;;;;;;;20.30;18.33;;;-0.80;99.90;;;;;;5036179;28;20323;-73
2023/02/07 00:43:22;;;;;;;18.52;16.90;;;-0.80;99.90;;;;;;5036338;28;20095;-73
2023/02/07 00:46:00;;;;;;;20.27;18.25;;;-0.70;99.90;;;;;;5035675;28;20037;-73
2023/02/07 00:48:29;;;;;;;21.33;19.23;;;-0.80;99.90;;;;;;5038470;28;20575;-74
2023/02/07 00:50:56;;;;;;;21.05;19.20;;;-0.90;99.90;;;;;;5035242;28;20064;-73
2023/02/07 00:53:24;;;;;;;20.63;18.80;;;-0.80;99.90;;;;;;5037777;28;20051;-73
2023/02/07 00:55:51;;;;;;;31.83;25.40;;;-0.90;99.90;;;;;;5036468;28;20056;-73
2023/02/07 00:58:18;;;;;;;21.40;19.38;;;-0.90;99.90;;;;;;5035555;28;20048;-73
2023/02/07 01:00:45;;;;;;;21.10;19.02;;;-0.90;99.90;;;;;;5014938;28;20033;-73
2023/02/07 01:03:12;;;;;;;21.13;18.50;;;-0.90;99.90;;;;;;5034072;28;20053;-73
2023/02/07 01:05:39;;;;;;;18.38;16.63;;;-0.90;99.90;;;;;;5035404;28;20489;-73
2023/02/07 01:08:07;;;;;;;20.02;18.00;;;-1.00;99.90;;;;;;5039039;28;20041;-74
2023/02/07 01:10:35;;;;;;;29.33;24.35;;;-0.90;99.90;;;;;;5036275;28;20447;-73
2023/02/07 01:13:01;;;;;;;26.35;23.38;;;-0.90;99.90;;;;;;5040854;28;20043;-73
2023/02/07 01:15:29;;;;;;;19.05;17.15;;;-0.90;99.90;;;;;;5038061;28;20462;-74
2023/02/07 01:17:55;;;;;;;19.60;17.70;;;-0.90;99.90;;;;;;5044649;28;20041;-73
2023/02/07 01:20:22;;;;;;;19.67;17.98;;;-1.00;99.90;;;;;;5040159;28;20037;-74
2023/02/07 01:22:49;;;;;;;18.95;17.02;;;-1.00;99.90;;;;;;5038659;28;20045;-73
2023/02/07 01:25:15;;;;;;;19.33;17.35;;;-1.10;99.90;;;;;;5042067;28;20041;-73
2023/02/07 01:27:42;;;;;;;19.05;17.25;;;-1.10;99.90;;;;;;5041382;28;20500;-73
2023/02/07 01:30:09;;;;;;;18.08;16.58;;;-1.00;99.90;;;;;;5040171;28;20041;-73
2023/02/07 01:32:36;;;;;;;18.92;17.42;;;-1.00;99.90;;;;;;5040922;28;20041;-73
2023/02/07 01:35:03;;;;;;;18.70;16.90;;;-1.00;99.90;;;;;;5037120;28;20072;-74
2023/02/07 01:37:31;;;;;;;27.35;24.48;;;-0.90;99.90;;;;;;5039794;28;20041;-73
2023/02/07 01:39:58;;;;;;;18.38;16.85;;;-0.90;99.90;;;;;;5039716;28;20088;-74
2023/02/07 01:42:26;;;;;;;52.90;35.13;;;-0.90;99.90;;;;;;5042001;28;20033;-73
2023/02/07 01:44:53;;;;;;;20.73;18.70;;;-0.90;99.90;;;;;;5039479;28;20045;-73
2023/02/07 01:47:22;;;;;;;47.22;31.08;;;-1.00;99.90;;;;;;5022778;28;20044;-73
2023/02/07 01:49:52;;;;;;;20.77;18.85;;;-1.10;99.90;;;;;;5039631;28;21110;-73
2023/02/07 01:52:25;;;;;;;52.78;31.88;;;-1.10;99.90;;;;;;5039667;28;20286;-74
2023/02/07 01:54:58;;;;;;;33.78;23.95;;;-1.00;99.90;;;;;;5052470;28;20056;-74
2023/02/07 01:57:25;;;;;;;20.23;18.08;;;-1.10;99.90;;;;;;5040720;28;20700;-74
2023/02/07 01:59:54;;;;;;;21.85;19.60;;;-1.10;99.90;;;;;;5026595;28;20132;-74
2023/02/07 02:02:22;;;;;;;31.67;23.75;;;-1.10;99.90;;;;;;5038301;28;20538;-74
2023/02/07 02:04:52;;;;;;;20.75;18.52;;;-1.10;99.90;;;;;;5041788;28;20049;-73
2023/02/07 02:07:20;;;;;;;53.78;34.55;;;-1.20;99.90;;;;;;5045122;28;20044;-74
2023/02/07 02:09:47;;;;;;;23.35;20.85;;;-1.20;99.90;;;;;;5041339;28;20067;-73
2023/02/07 02:12:23;;;;;;;20.73;18.83;;;-1.10;99.90;;;;;;5046333;28;20053;-74
2023/02/07 02:15:02;;;;;;;19.05;17.23;;;-1.10;99.90;;;;;;5042228;28;20041;-73
2023/02/07 02:17:47;;;;;;;21.02;19.02;;;-1.10;99.90;;;;;;5044033;28;20064;-73
2023/02/07 02:20:16;;;;;;;;;;;-1.10;99.90;;;;;;5043780;28;20109;-73
2023/02/07 02:23:13;;;;;;;46.75;31.25;;;-1.20;99.90;;;;;;5040295;28;20027;-73
2023/02/07 02:26:09;;;;;;;37.78;25.48;;;-1.20;99.90;;;;;;5039199;28;20422;-74
2023/02/07 02:29:01;;;;;;;37.67;25.25;;;-1.10;99.90;;;;;;5057183;28;20045;-73
2023/02/07 02:31:49;;;;;;;49.85;27.92;;;-1.10;99.90;;;;;;5041660;28;20041;-74
2023/02/07 02:34:41;;;;;;;22.30;17.65;;;-1.20;99.90;;;;;;5039734;28;20296;-73
2023/02/07 02:37:25;;;;;;;45.95;29.23;;;-1.10;99.90;;;;;;5041215;28;20261;-73
2023/02/07 02:40:06;;;;;;;20.52;18.42;;;-1.20;99.90;;;;;;5028278;28;20426;-73
2023/02/07 02:42:41;;;;;;;19.05;17.13;;;-1.20;99.90;;;;;;5038311;28;20045;-73
2023/02/07 02:45:49;;;;;;;23.88;20.30;;;-1.20;99.90;;;;;;5052619;28;20044;-74
2023/02/07 02:48:18;;;;;;;43.67;26.90;;;-1.20;99.90;;;;;;5058079;28;20049;-73
2023/02/07 02:50:47;;;;;;;26.75;19.60;;;-1.40;99.90;;;;;;5046283;28;20065;-74
2023/02/07 02:53:14;;;;;;;19.67;17.67;;;-1.30;99.90;;;;;;5028475;28;20538;-73
2023/02/07 02:56:14;;;;;;;21.73;17.08;;;-1.40;99.90;;;;;;5043990;28;20047;-74
2023/02/07 02:58:44;;;;;;;23.67;17.95;;;-1.50;99.90;;;;;;5060206;28;20441;-73
2023/02/07 03:01:34;;;;;;;23.35;18.05;;;-1.40;99.90;;;;;;5044937;28;20041;-73
2023/02/07 03:04:20;;;;;;;21.15;17.58;;;-1.40;99.90;;;;;;5037216;28;20059;-73
2023/02/07 03:07:19;;;;;;;19.38;17.05;;;-1.50;99.90;;;;;;5068612;28;20116;-73
2023/02/07 03:09:51;;;;;;;22.17;17.85;;;-1.50;99.90;;;;;;5044118;28;20084;-73
2023/02/07 03:12:33;;;;;;;21.40;16.77;;;-1.50;99.90;;;;;;5046952;28;20080;-73
2023/02/07 03:15:15;;;;;;;22.80;18.45;;;-1.70;99.90;;;;;;5044079;28;20084;-74
2023/02/07 03:17:54;;;;;;;20.83;16.60;;;-1.80;99.90;;;;;;5044905;28;20072;-73
2023/02/07 03:20:37;;;;;;;25.15;18.70;;;-1.90;99.90;;;;;;5042497;28;20427;-73
2023/02/07 03:23:06;;;;;;;26.42;18.38;;;-1.80;99.90;;;;;;5030197;28;20051;-73
2023/02/07 03:25:35;;;;;;;24.42;18.33;;;-1.90;99.90;;;;;;5044162;28;20450;-73
2023/02/07 03:28:05;;;;;;;24.95;20.00;;;-1.90;99.90;;;;;;5024341;28;20503;-74
2023/02/07 03:30:34;;;;;;;29.60;20.35;;;-1.80;99.90;;;;;;5042395;28;20071;-74
2023/02/07 03:33:10;;;;;;;28.80;19.85;;;-1.80;99.90;;;;;;5038546;28;20091;-73
2023/02/07 03:36:01;;;;;;;26.60;20.45;;;-1.80;99.90;;;;;;5037198;28;20041;-73
2023/02/07 03:38:28;;;;;;;29.00;19.85;;;-1.80;99.90;;;;;;5009544;28;20690;-74
2023/02/07 03:41:00;;;;;;;31.10;20.77;;;-1.80;99.90;;;;;;5042141;28;20045;-74
2023/02/07 03:43:29;;;;;;;28.40;20.25;;;-1.70;99.90;;;;;;5019427;28;20094;-74
2023/02/07 03:45:56;;;;;;;28.75;21.35;;;-1.80;99.90;;;;;;5044767;28;20075;-75
2023/02/07 03:48:23;;;;;;;28.77;20.95;;;-1.70;99.90;;;;;;5022671;28;20415;-74
2023/02/07 03:50:51;;;;;;;30.80;20.98;;;-1.60;99.90;;;;;;5041749;28;20048;-75
2023/02/07 03:53:19;;;;;;;29.40;20.80;;;-1.70;99.90;;;;;;5038669;28;20132;-75
2023/02/07 03:55:46;;;;;;;32.03;21.30;;;-1.70;99.90;;;;;;5039080;28;20033;-74
2023/02/07 03:58:13;;;;;;;31.83;22.08;;;-1.70;99.90;;;;;;5039309;28;20063;-74
2023/02/07 04:00:40;;;;;;;29.20;21.38;;;-1.80;99.90;;;;;;5036335;28;20055;-74
2023/02/07 04:03:07;;;;;;;33.80;22.40;;;-1.80;99.90;;;;;;5043711;28;20037;-75
2023/02/07 04:05:34;;;;;;;29.65;22.00;;;-1.90;99.90;;;;;;5039409;28;20512;-75
2023/02/07 04:08:00;;;;;;;31.55;22.17;;;-1.90;99.90;;;;;;5070825;22;20048;-71
2023/02/07 04:10:27;;;;;;;35.10;24.25;;;-1.90;99.90;;;;;;5046847;28;20044;-71
2023/02/07 04:12:54;;;;;;;34.42;23.60;;;-1.90;99.90;;;;;;5050795;28;20068;-71
2023/02/07 04:15:21;;;;;;;31.83;22.13;;;-1.90;99.90;;;;;;5048891;28;20055;-71
2023/02/07 04:17:47;;;;;;;30.17;21.13;;;-1.90;99.90;;;;;;5037161;28;20041;-70
2023/02/07 04:20:14;;;;;;;38.60;23.95;;;-1.90;99.90;;;;;;5033966;28;20055;-71
2023/02/07 04:22:41;;;;;;;31.17;22.58;;;-1.90;99.90;;;;;;5038397;28;20044;-71
2023/02/07 04:25:08;;;;;;;36.30;24.45;;;-2.00;99.90;;;;;;5034260;28;20399;-71
2023/02/07 04:27:34;;;;;;;35.42;23.52;;;-2.00;99.90;;;;;;5036485;28;20398;-73
2023/02/07 04:30:01;;;;;;;34.10;21.73;;;-2.10;99.90;;;;;;5028970;28;20049;-73
2023/02/07 04:32:28;;;;;;;39.13;23.33;;;-2.20;99.90;;;;;;5042739;28;20036;-71
2023/02/07 04:34:54;;;;;;;34.42;22.92;;;-2.20;99.90;;;;;;5034796;28;20051;-71
2023/02/07 04:37:21;;;;;;;34.83;23.27;;;-2.20;99.90;;;;;;5033053;28;20052;-71
2023/02/07 04:39:48;;;;;;;36.85;24.08;;;-2.20;99.90;;;;;;5034228;28;20048;-71
2023/02/07 04:42:14;;;;;;;37.38;24.30;;;-2.20;99.90;;;;;;5039168;28;20044;-71
2023/02/07 04:44:41;;;;;;;38.50;24.05;;;-2.20;99.90;;;;;;5047303;28;20051;-73
2023/02/07 04:47:07;;;;;;;37.13;24.13;;;-2.30;99.90;;;;;;5016629;28;20112;-73
2023/02/07 04:49:34;;;;;;;38.50;24.73;;;-2.30;99.90;;;;;;5037560;28;20124;-71
2023/02/07 04:52:01;;;;;;;39.20;24.13;;;-2.40;99.90;;;;;;5040395;28;20197;-71
2023/02/07 04:54:27;;;;;;;38.20;23.10;;;-2.50;99.90;;;;;;5042797;28;20049;-71
2023/02/07 04:56:54;;;;;;;38.88;23.73;;;-2.40;99.90;;;;;;5035076;28;20475;-71
2023/02/07 04:59:21;;;;;;;41.38;26.63;;;-2.40;99.90;;;;;;5044768;28;20066;-71
2023/02/07 05:01:48;;;;;;;40.30;24.13;;;-2.60;99.90;;;;;;5032210;28;20485;-73
2023/02/07 05:04:14;;;;;;;42.00;26.00;;;-2.50;99.90;;;;;;5048033;28;20037;-73
2023/02/07 05:06:41;;;;;;;44.15;27.33;;;-2.50;99.90;;;;;;5035067;28;20065;-71
2023/02/07 05:09:08;;;;;;;43.25;26.63;;;-2.70;99.90;;;;;;5046462;28;20055;-71
2023/02/07 05:11:35;;;;;;;42.17;26.42;;;-2.70;99.90;;;;;;5041512;28;20135;-71
2023/02/07 05:14:01;;;;;;;40.50;28.02;;;-2.80;99.90;;;;;;5037165;28;20143;-73
2023/02/07 05:16:28;;;;;;;44.10;27.90;;;-2.80;99.90;;;;;;5041553;28;20406;-71
2023/02/07 05:18:55;;;;;;;55.47;29.65;;;-2.90;99.90;;;;;;5035686;28;20048;-71
2023/02/07 05:21:22;;;;;;;47.85;30.27;;;-3.00;99.90;;;;;;5019370;28;20044;-71
2023/02/07 05:23:49;;;;;;;49.55;29.25;;;-3.00;99.90;;;;;;5035509;28;20144;-71
2023/02/07 05:26:16;;;;;;;50.22;30.13;;;-2.90;99.90;;;;;;5038395;28;20279;-71
2023/02/07 05:28:43;;;;;;;51.33;29.55;;;-2.80;99.90;;;;;;5043758;28;20045;-71
2023/02/07 05:31:10;;;;;;;53.67;31.85;;;-2.90;99.90;;;;;;5046457;28;20399;-72
2023/02/07 05:33:37;;;;;;;49.70;29.77;;;-2.90;99.90;;;;;;5036271;28;20047;-73
2023/02/07 05:36:04;;;;;;;48.88;30.35;;;-2.90;99.90;;;;;;5043660;28;20045;-71
2023/02/07 05:38:30;;;;;;;52.90;30.42;;;-3.00;99.90;;;;;;5055952;28;20051;-73
2023/02/07 05:40:57;;;;;;;49.25;31.23;;;-3.10;99.90;;;;;;5038271;28;20037;-71
2023/02/07 05:43:24;;;;;;;63.50;36.95;;;-3.10;99.90;;;;;;5036303;28;20384;-73
2023/02/07 05:45:50;;;;;;;61.65;34.50;;;-3.20;99.90;;;;;;5037738;28;20047;-74
2023/02/07 05:48:17;;;;;;;57.50;33.20;;;-3.10;99.90;;;;;;5046343;28;20103;-73
2023/02/07 05:50:44;;;;;;;77.35;40.42;;;-3.10;99.90;;;;;;5046912;28;20048;-74
2023/02/07 05:53:11;;;;;;;60.38;34.53;;;-3.10;99.90;;;;;;5042524;28;20079;-74
2023/02/07 05:55:39;;;;;;;57.60;33.17;;;-3.20;99.90;;;;;;5066141;28;20044;-74
2023/02/07 05:58:07;;;;;;;62.97;35.55;;;-3.30;99.90;;;;;;5065430;28;20029;-73
2023/02/07 06:00:33;;;;;;;62.45;35.50;;;-3.20;99.90;;;;;;5062110;28;20051;-74
2023/02/07 06:03:00;;;;;;;62.00;35.30;;;-3.10;99.90;;;;;;5039742;28;20048;-73
2023/02/07 06:05:30;;;;;;;55.13;33.40;;;-3.20;99.90;;;;;;5030602;28;20064;-73
2023/02/07 06:07:57;;;;;;;53.22;32.10;;;-3.00;99.90;;;;;;5053365;28;20051;-73
2023/02/07 06:10:24;;;;;;;54.58;32.15;;;-2.90;99.90;;;;;;5035786;28;20122;-73
2023/02/07 06:12:51;;;;;;;55.20;32.75;;;-2.90;99.90;;;;;;5036498;28;20056;-71
2023/02/07 06:15:17;;;;;;;59.17;31.98;;;-3.10;99.90;;;;;;5019036;28;20854;-71
2023/02/07 06:17:44;;;;;;;56.15;31.75;;;-3.10;99.90;;;;;;5039733;28;20071;-71
2023/02/07 06:20:11;;;;;;;54.78;31.25;;;-3.30;99.90;;;;;;5042257;28;20103;-71
2023/02/07 06:22:37;;;;;;;55.78;32.05;;;-3.30;99.90;;;;;;5037342;28;20549;-71
2023/02/07 06:25:04;;;;;;;58.75;33.47;;;-3.30;99.90;;;;;;5048648;28;20047;-71
2023/02/07 06:27:31;;;;;;;66.20;33.30;;;-3.40;99.90;;;;;;5039552;28;20047;-72
2023/02/07 06:29:58;;;;;;;57.63;33.10;;;-3.40;99.90;;;;;;5043461;28;20037;-71
2023/02/07 06:32:25;;;;;;;62.00;34.33;;;-3.50;99.90;;;;;;5040489;28;20751;-71
2023/02/07 06:34:51;;;;;;;61.03;34.63;;;-3.50;99.90;;;;;;5036696;28;20036;-72
2023/02/07 06:37:18;;;;;;;63.40;36.55;;;-3.50;99.90;;;;;;5035861;28;20036;-71
2023/02/07 06:39:44;;;;;;;64.03;34.33;;;-3.60;99.90;;;;;;5040114;28;20040;-71
2023/02/07 06:42:11;;;;;;;59.55;35.22;;;-3.60;99.90;;;;;;5029062;28;20479;-71
2023/02/07 06:44:38;;;;;;;66.55;37.15;;;-3.70;99.90;;;;;;5042549;28;20139;-71
2023/02/07 06:47:05;;;;;;;65.50;36.45;;;-3.60;99.90;;;;;;5036742;28;20041;-71
2023/02/07 06:49:31;;;;;;;74.60;39.10;;;-3.50;99.90;;;;;;5047576;28;20040;-71
2023/02/07 06:51:58;;;;;;;70.93;39.60;;;-3.40;99.90;;;;;;5034876;28;20136;-71
2023/02/07 06:54:25;;;;;;;66.53;37.78;;;-3.50;99.90;;;;;;5037993;28;20052;-71
2023/02/07 06:56:51;;;;;;;68.35;38.40;;;-3.50;99.90;;;;;;5039572;28;20044;-71
2023/02/07 06:59:18;;;;;;;60.72;38.03;;;-3.40;99.90;;;;;;5042522;28;20052;-71
2023/02/07 07:01:45;;;;;;;69.75;37.65;;;-3.20;99.90;;;;;;5035067;28;20087;-72
2023/02/07 07:04:15;;;;;;;61.15;35.58;;;-3.20;99.90;;;;;;5040590;28;20052;-71
2023/02/07 07:06:41;;;;;;;64.07;35.00;;;-3.10;99.90;;;;;;5055580;28;20495;-72
2023/02/07 07:09:08;;;;;;;60.28;35.63;;;-3.20;99.90;;;;;;5053451;28;20036;-71
2023/02/07 07:11:41;;;;;;;62.08;36.10;;;-3.10;99.90;;;;;;5038364;28;20037;-71
2023/02/07 07:14:09;;;;;;;60.33;34.35;;;-3.20;99.90;;;;;;5034654;28;20059;-71
2023/02/07 07:16:37;;;;;;;61.67;33.38;;;-3.10;99.90;;;;;;5040571;28;20173;-71
2023/02/07 07:19:03;;;;;;;59.35;33.40;;;-3.00;99.90;;;;;;5040808;28;20514;-71
2023/02/07 07:21:30;;;;;;;57.55;33.63;;;-3.00;99.90;;;;;;5018563;28;20045;-71
2023/02/07 07:23:57;;;;;;;57.90;33.92;;;-2.90;99.90;;;;;;5039958;28;20049;-71
2023/02/07 07:26:24;;;;;;;57.50;32.17;;;-3.00;99.90;;;;;;5030279;28;20096;-70
2023/02/07 07:28:50;;;;;;;57.10;34.35;;;-3.00;99.90;;;;;;5039314;28;20707;-71
2023/02/07 07:31:17;;;;;;;55.42;32.38;;;-3.00;99.90;;;;;;5036174;28;20045;-71
2023/02/07 07:33:44;;;;;;;56.58;34.35;;;-2.90;99.90;;;;;;5036898;28;20072;-73
2023/02/07 07:36:10;;;;;;;56.28;33.97;;;-2.90;99.90;;;;;;5038622;28;20068;-73
2023/02/07 07:38:37;;;;;;;57.63;34.50;;;-2.90;99.90;;;;;;5040830;28;20068;-74
2023/02/07 07:41:04;;;;;;;60.28;36.30;;;-2.90;99.90;;;;;;5045441;28;20033;-73
2023/02/07 07:43:31;;;;;;;55.85;35.00;;;-2.90;99.90;;;;;;5041447;28;20050;-74
2023/02/07 07:46:01;;;;;;;58.88;34.03;;;-2.90;99.90;;;;;;5018027;28;20041;-74
2023/02/07 07:48:27;;;;;;;59.85;35.15;;;-2.80;99.90;;;;;;5049316;28;20059;-73
2023/02/07 07:50:54;;;;;;;60.67;35.35;;;-2.80;99.90;;;;;;5041197;28;20043;-74
2023/02/07 07:53:21;;;;;;;59.13;35.17;;;-2.70;99.90;;;;;;5042505;28;20049;-73
2023/02/07 07:55:49;;;;;;;57.70;34.67;;;-2.70;99.90;;;;;;5042191;28;20043;-73
2023/02/07 07:58:17;;;;;;;60.58;37.50;;;-2.80;99.90;;;;;;5047693;28;20052;-73
2023/02/07 08:00:46;;;;;;;58.88;35.05;;;-2.70;99.90;;;;;;5048168;28;20123;-76
2023/02/07 08:03:14;;;;;;;57.80;34.63;;;-2.70;99.90;;;;;;5045778;28;20141;-76
2023/02/07 08:05:42;;;;;;;59.55;34.67;;;-2.60;99.90;;;;;;5037284;28;20534;-76
2023/02/07 08:08:09;;;;;;;58.55;35.08;;;-2.50;99.90;;;;;;5044813;28;20056;-76
2023/02/07 08:10:35;;;;;;;61.05;36.47;;;-2.40;99.90;;;;;;5044426;28;20594;-76
2023/02/07 08:13:03;;;;;;;54.97;35.63;;;-2.40;99.90;;;;;;5039990;28;20083;-74
2023/02/07 08:15:30;;;;;;;59.15;36.80;;;-2.30;99.90;;;;;;5042048;28;20120;-73
2023/02/07 08:17:56;;;;;;;55.00;36.70;;;-2.30;99.90;;;;;;5034089;28;20120;-74
2023/02/07 08:20:23;;;;;;;54.08;34.13;;;-2.10;99.90;;;;;;5033292;28;20124;-74
2023/02/07 08:22:50;;;;;;;54.60;33.67;;;-2.20;99.90;;;;;;5035999;28;20107;-74
2023/02/07 08:25:17;;;;;;;54.70;34.40;;;-2.10;99.90;;;;;;5038125;28;20055;-75
2023/02/07 08:27:43;;;;;;;61.28;38.92;;;-2.00;99.90;;;;;;5033088;28;20060;-73
2023/02/07 08:30:12;;;;;;;57.75;33.55;;;-2.00;99.90;;;;;;5048104;28;20060;-74
2023/02/07 08:32:40;;;;;;;55.70;35.33;;;-1.90;99.90;;;;;;5047573;28;20039;-73
2023/02/07 08:35:08;;;;;;;48.85;36.05;;;-1.70;99.90;;;;;;5025841;28;20036;-73
2023/02/07 08:37:34;;;;;;;49.83;35.38;;;-1.40;99.90;;;;;;5023687;28;20072;-73
2023/02/07 08:40:03;;;;;;;51.00;37.10;;;-1.20;99.90;;;;;;5025191;28;20052;-73
2023/02/07 08:42:30;;;;;;;45.60;38.17;;;-1.20;99.90;;;;;;5043187;28;20147;-75
2023/02/07 08:44:56;;;;;;;48.90;39.80;;;-1.10;99.90;;;;;;5031594;28;20041;-77
2023/02/07 08:47:23;;;;;;;45.67;37.72;;;-0.90;99.90;;;;;;5039738;28;20519;-76
2023/02/07 08:49:50;;;;;;;51.25;41.55;;;-0.80;99.90;;;;;;5033583;28;20048;-73
2023/02/07 08:52:17;;;;;;;50.35;42.33;;;-0.60;99.90;;;;;;5048154;28;20044;-74
2023/02/07 08:54:43;;;;;;;53.60;42.40;;;-0.30;99.90;;;;;;5035572;28;20025;-74
2023/02/07 08:57:10;;;;;;;48.72;42.45;;;-0.30;99.90;;;;;;5038061;28;20049;-76
2023/02/07 08:59:36;;;;;;;45.90;41.35;;;0.10;99.90;;;;;;5039024;28;20049;-76
2023/02/07 09:02:03;;;;;;;48.72;43.75;;;0.20;99.90;;;;;;5036775;28;20052;-76
2023/02/07 09:04:30;;;;;;;54.22;48.40;;;0.30;99.90;;;;;;5046347;28;20052;-75
2023/02/07 09:06:56;;;;;;;48.25;43.38;;;0.60;99.90;;;;;;5030097;28;20550;-76
2023/02/07 09:09:24;;;;;;;50.40;45.40;;;0.40;99.90;;;;;;5052175;28;20052;-75
2023/02/07 09:11:50;;;;;;;48.15;43.40;;;0.40;99.90;;;;;;5032923;28;20539;-76
2023/02/07 09:14:17;;;;;;;48.25;43.47;;;0.30;99.90;;;;;;5041197;28;20040;-76
2023/02/07 09:16:44;;;;;;;58.50;52.95;;;0.30;99.90;;;;;;5016180;28;20128;-76
2023/02/07 09:19:11;;;;;;;49.63;44.80;;;0.50;99.90;;;;;;5041043;28;20558;-76
2023/02/07 09:21:38;;;;;;;53.72;48.28;;;0.80;99.90;;;;;;5046322;28;20032;-76
2023/02/07 09:24:04;;;;;;;49.03;44.60;;;0.90;99.90;;;;;;5033824;28;20056;-75
2023/02/07 09:26:34;;;;;;;52.42;47.45;;;1.00;99.90;;;;;;5030503;28;20544;-75
2023/02/07 09:29:00;;;;;;;50.70;45.90;;;0.80;99.90;;;;;;5037568;28;20047;-74
2023/02/07 09:31:27;;;;;;;50.83;45.88;;;1.00;99.90;;;;;;5041357;28;20133;-75
2023/02/07 09:33:54;;;;;;;52.42;47.03;;;0.90;99.90;;;;;;5031845;28;20514;-73
2023/02/07 09:36:23;;;;;;;48.25;43.55;;;1.20;99.90;;;;;;5044271;28;20358;-75
2023/02/07 09:38:51;;;;;;;52.38;47.28;;;1.10;99.90;;;;;;5028751;28;20479;-73
2023/02/07 09:42:00;;;;;;;51.30;46.00;;;1.10;99.90;;;;;;5044649;28;20637;-73
2023/02/07 09:44:54;;;;;;;48.85;44.03;;;1.40;99.90;;;;;;5039687;28;20518;-75
2023/02/07 09:47:24;;;;;;;51.35;46.55;;;1.10;99.90;;;;;;5041038;28;20341;-73
2023/02/07 09:50:04;;;;;;;52.42;47.45;;;1.30;99.90;;;;;;5039215;28;20150;-73
2023/02/07 09:52:52;;;;;;;49.97;45.30;;;1.60;99.90;;;;;;5045431;28;20052;-75
2023/02/07 09:55:40;;;;;;;51.08;46.22;;;1.80;99.90;;;;;;5043467;28;20036;-75
2023/02/07 09:58:17;;;;;;;50.53;46.17;;;1.60;99.90;;;;;;5046496;28;20475;-73
2023/02/07 10:00:55;;;;;;;48.70;44.63;;;1.80;99.90;;;;;;5043818;28;20068;-73
2023/02/07 10:03:24;;;;;;;49.13;45.08;;;2.00;99.90;;;;;;5047586;28;20056;-73
2023/02/07 10:05:59;;;;;;;51.65;47.00;;;1.90;99.90;;;;;;5042819;28;20060;-73
2023/02/07 10:08:44;;;;;;;53.38;48.53;;;1.80;99.90;;;;;;5060275;22;20413;-76
2023/02/07 10:11:20;;;;;;;52.25;48.00;;;1.60;99.90;;;;;;5036935;28;20068;-74
2023/02/07 10:13:47;;;;;;;51.45;47.03;;;1.70;99.90;;;;;;5037645;28;20136;-73
2023/02/07 10:16:47;;;;;;;49.08;44.65;;;2.00;99.90;;;;;;5034889;28;20044;-74
2023/02/07 10:19:25;;;;;;;49.35;45.08;;;2.00;99.90;;;;;;5028687;28;20049;-74
2023/02/07 10:21:58;;;;;;;48.03;44.15;;;2.10;99.90;;;;;;5028199;28;20526;-73
2023/02/07 10:24:53;;;;;;;50.42;46.13;;;2.20;99.90;;;;;;5027125;28;20073;-74
2023/02/07 10:27:35;;;;;;;56.83;52.22;;;2.20;99.90;;;;;;5032548;28;20049;-73
2023/02/07 10:30:25;;;;;;;55.88;51.45;;;2.40;99.90;;;;;;5031795;28;20044;-73
2023/02/07 10:32:57;;;;;;;56.72;52.30;;;2.20;99.90;;;;;;5007983;28;20141;-73
2023/02/07 10:35:32;;;;;;;58.65;53.95;;;2.00;99.90;;;;;;5023617;28;20227;-73
2023/02/07 10:38:03;;;;;;;56.67;52.28;;;2.10;99.90;;;;;;5028302;28;20076;-73
2023/02/07 10:40:39;;;;;;;59.03;54.13;;;1.90;99.90;;;;;;5037227;28;20607;-74
2023/02/07 10:43:32;;;;;;;55.38;50.53;;;1.90;99.90;;;;;;5030835;28;20052;-74
2023/02/07 10:46:10;;;;;;;58.10;53.33;;;2.00;99.90;;;;;;5022021;28;20598;-74
2023/02/07 10:48:38;;;;;;;57.17;52.60;;;1.90;99.90;;;;;;5027415;28;20099;-73
2023/02/07 10:51:41;;;;;;;55.97;51.60;;;2.30;99.90;;;;;;5026495;28;20065;-73
2023/02/07 10:54:15;;;;;;;57.35;52.63;;;2.10;99.90;;;;;;5025488;28;20573;-73
2023/02/07 10:56:44;;;;;;;53.63;49.10;;;1.80;99.90;;;;;;5029892;28;20064;-74
2023/02/07 10:59:37;;;;;;;56.92;52.15;;;2.00;99.90;;;;;;5028173;28;20045;-73
2023/02/07 11:02:47;;;;;;;54.88;50.45;;;2.00;99.90;;;;;;5026835;28;20049;-74
2023/02/07 11:05:16;;;;;;;55.55;50.47;;;2.10;99.90;;;;;;4995482;28;20084;-75
2023/02/07 11:08:16;;;;;;;50.85;46.47;;;2.20;99.90;;;;;;5010354;28;20052;-73
2023/02/07 11:10:44;;;;;;;51.10;46.72;;;2.10;99.90;;;;;;5045210;28;20122;-72
2023/02/07 11:13:15;;;;;;;51.22;47.28;;;2.00;99.90;;;;;;5040665;28;20043;-74
2023/02/07 11:16:05;;;;;;;51.92;47.28;;;2.20;99.90;;;;;;5035969;28;20121;-72
2023/02/07 11:18:36;;;;;;;54.58;49.90;;;2.50;99.90;;;;;;5034007;28;20044;-72
2023/02/07 11:21:27;;;;;;;51.67;47.08;;;2.70;99.90;;;;;;5047508;28;20048;-72
2023/02/07 11:23:59;;;;;;;50.70;46.47;;;2.80;99.90;;;;;;5047787;28;20416;-74
2023/02/07 11:26:26;;;;;;;50.55;46.42;;;3.10;99.90;;;;;;5049935;28;20391;-74
2023/02/07 11:29:14;;;;;;;52.47;48.08;;;2.80;99.90;;;;;;5050541;28;20047;-73
2023/02/07 11:31:43;;;;;;;50.03;45.80;;;2.90;99.90;;;;;;5052761;28;20617;-74
2023/02/07 11:34:41;;;;;;;46.67;42.88;;;2.90;99.90;;;;;;5046048;28;20036;-73
2023/02/07 11:37:15;;;;;;;52.22;48.20;;;2.90;99.90;;;;;;5027856;28;20041;-74
2023/02/07 11:39:47;;;;;;;50.60;46.67;;;3.10;99.90;;;;;;5050179;28;20443;-72
2023/02/07 11:42:19;;;;;;;49.08;45.20;;;3.30;99.90;;;;;;5044832;28;20040;-74
2023/02/07 11:44:47;;;;;;;49.28;45.55;;;3.40;99.90;;;;;;5046672;28;20071;-73
2023/02/07 11:47:34;;;;;;;48.58;44.88;;;3.50;99.90;;;;;;5036779;28;20063;-75
2023/02/07 11:50:05;;;;;;;50.85;46.83;;;3.30;99.90;;;;;;5044382;28;20068;-72
2023/02/07 11:52:36;;;;;;;50.60;46.83;;;3.20;99.90;;;;;;5053771;28;20490;-74
2023/02/07 11:55:07;;;;;;;49.25;45.53;;;3.40;99.90;;;;;;5047875;28;20082;-71
2023/02/07 11:57:34;;;;;;;48.88;45.03;;;3.40;99.90;;;;;;5053086;28;20040;-74
2023/02/07 12:00:05;;;;;;;48.78;44.60;;;3.40;99.90;;;;;;5045011;28;20151;-72
2023/02/07 12:02:50;;;;;;;47.47;43.90;;;3.30;99.90;;;;;;5038024;28;20098;-72
2023/02/07 12:05:25;;;;;;;46.45;42.90;;;3.40;99.90;;;;;;5045326;28;20048;-71
2023/02/07 12:07:58;;;;;;;48.58;45.05;;;3.50;99.90;;;;;;5050642;28;20412;-74
2023/02/07 12:10:35;;;;;;;49.35;45.55;;;3.50;99.90;;;;;;5041132;28;20451;-73
2023/02/07 12:13:10;;;;;;;51.15;47.25;;;3.50;99.90;;;;;;5038845;28;20044;-74
2023/02/07 12:15:39;;;;;;;47.50;43.92;;;3.60;99.90;;;;;;5043064;28;20037;-74
2023/02/07 12:18:31;;;;;;;45.38;42.05;;;3.70;99.90;;;;;;5050582;28;20049;-74
2023/02/07 12:21:17;;;;;;;47.67;44.08;;;3.80;99.90;;;;;;5052645;28;20057;-74
2023/02/07 12:24:04;;;;;;;46.97;43.20;;;3.70;99.90;;;;;;5050998;28;20050;-74
2023/02/07 12:26:44;;;;;;;46.67;43.05;;;3.80;99.90;;;;;;5048698;28;20048;-74
2023/02/07 12:29:34;;;;;;;47.72;43.92;;;3.90;99.90;;;;;;5049882;28;20036;-73
2023/02/07 12:32:27;;;;;;;46.08;42.63;;;4.00;99.90;;;;;;5030277;28;20099;-74
2023/02/07 12:35:26;;;;;;;44.30;40.95;;;4.00;99.90;;;;;;5051039;28;20037;-73
2023/02/07 12:38:11;;;;;;;46.42;42.90;;;3.90;99.90;;;;;;5052863;28;20044;-72
2023/02/07 12:40:50;;;;;;;46.92;43.53;;;4.00;99.90;;;;;;5049863;28;20044;-74
2023/02/07 12:43:34;;;;;;;48.55;44.95;;;4.00;99.90;;;;;;5051798;28;20045;-74
2023/02/07 12:46:01;;;;;;;44.60;41.20;;;4.10;99.90;;;;;;5039296;28;20167;-73
2023/02/07 12:49:05;;;;;;;49.17;45.33;;;4.30;99.90;;;;;;5045165;28;20462;-74
2023/02/07 12:51:46;;;;;;;45.78;42.08;;;4.10;99.90;;;;;;5050754;28;20052;-73
2023/02/07 12:54:19;;;;;;;46.17;42.58;;;4.40;99.90;;;;;;5035598;28;20045;-73